sensor_id;sensor_type;location;lat;lon;timestamp;P1;durP1;ratioP1;P2;durP2;ratioP2
80101;SDS011;69407;44.966;19.622;2024-01-07T00:01:29;11.98;;;5.80;;
80101;SDS011;69407;44.966;19.622;2024-01-07T00:03:54;13.00;;;6.00;;
80101;SDS011;69407;44.966;19.622;2024-01-07T00:06:20;11.32;;;5.63;;
80101;SDS011;69407;44.966;19.622;2024-01-07T00:08:45;9.95;;;5.63;;
80101;SDS011;69407;44.966;19.622;2024-01-07T00:11:12;12.20;;;5.70;;
80101;SDS011;69407;44.966;19.622;2024-01-07T00:13:38;11.48;;;5.13;;
80101;SDS011;69407;44.966;19.622;2024-01-07T00:16:03;14.02;;;5.53;;
80101;SDS011;69407;44.966;19.622;2024-01-07T00:18:29;11.63;;;6.32;;
80101;SDS011;69407;44.966;19.622;2024-01-07T00:20:54;12.20;;;5.57;;
80101;SDS011;69407;44.966;19.622;2024-01-07T00:23:20;15.60;;;7.10;;
80101;SDS011;69407;44.966;19.622;2024-01-07T00:25:46;15.18;;;5.80;;
80101;SDS011;69407;44.966;19.622;2024-01-07T00:28:12;11.57;;;5.82;;
80101;SDS011;69407;44.966;19.622;2024-01-07T00:30:38;10.98;;;6.38;;
80101;SDS011;69407;44.966;19.622;2024-01-07T00:33:03;12.40;;;6.93;;
80101;SDS011;69407;44.966;19.622;2024-01-07T00:35:29;12.52;;;6.10;;
80101;SDS011;69407;44.966;19.622;2024-01-07T00:37:54;11.35;;;6.53;;
80101;SDS011;69407;44.966;19.622;2024-01-07T00:40:21;14.43;;;5.45;;
80101;SDS011;69407;44.966;19.622;2024-01-07T00:42:47;16.17;;;6.03;;
80101;SDS011;69407;44.966;19.622;2024-01-07T00:45:13;12.48;;;6.03;;
80101;SDS011;69407;44.966;19.622;2024-01-07T00:47:38;14.18;;;6.22;;
80101;SDS011;69407;44.966;19.622;2024-01-07T00:50:04;12.57;;;5.78;;
80101;SDS011;69407;44.966;19.622;2024-01-07T00:52:30;14.02;;;6.15;;
80101;SDS011;69407;44.966;19.622;2024-01-07T00:54:55;15.80;;;6.63;;
80101;SDS011;69407;44.966;19.622;2024-01-07T00:57:21;15.82;;;7.57;;
80101;SDS011;69407;44.966;19.622;2024-01-07T00:59:47;18.42;;;7.35;;
80101;SDS011;69407;44.966;19.622;2024-01-07T01:02:13;16.88;;;7.00;;
80101;SDS011;69407;44.966;19.622;2024-01-07T01:04:38;15.65;;;7.32;;
80101;SDS011;69407;44.966;19.622;2024-01-07T01:07:05;11.93;;;6.03;;
80101;SDS011;69407;44.966;19.622;2024-01-07T01:09:31;16.80;;;7.45;;
80101;SDS011;69407;44.966;19.622;2024-01-07T01:11:56;16.45;;;8.43;;
80101;SDS011;69407;44.966;19.622;2024-01-07T01:14:21;17.38;;;8.25;;
80101;SDS011;69407;44.966;19.622;2024-01-07T01:16:47;17.42;;;7.50;;
80101;SDS011;69407;44.966;19.622;2024-01-07T01:19:12;15.05;;;6.90;;
80101;SDS011;69407;44.966;19.622;2024-01-07T01:21:38;18.10;;;6.80;;
80101;SDS011;69407;44.966;19.622;2024-01-07T01:24:03;13.45;;;6.43;;
80101;SDS011;69407;44.966;19.622;2024-01-07T01:26:29;14.30;;;6.88;;
80101;SDS011;69407;44.966;19.622;2024-01-07T01:28:54;12.68;;;5.38;;
80101;SDS011;69407;44.966;19.622;2024-01-07T01:31:20;13.85;;;6.28;;
80101;SDS011;69407;44.966;19.622;2024-01-07T01:33:45;12.30;;;6.15;;
80101;SDS011;69407;44.966;19.622;2024-01-07T01:36:11;15.77;;;6.43;;
80101;SDS011;69407;44.966;19.622;2024-01-07T01:38:36;13.10;;;7.13;;
80101;SDS011;69407;44.966;19.622;2024-01-07T01:41:02;14.18;;;5.97;;
80101;SDS011;69407;44.966;19.622;2024-01-07T01:43:28;11.07;;;5.25;;
80101;SDS011;69407;44.966;19.622;2024-01-07T01:45:54;12.93;;;6.22;;
80101;SDS011;69407;44.966;19.622;2024-01-07T01:48:21;10.23;;;5.47;;
80101;SDS011;69407;44.966;19.622;2024-01-07T01:50:51;13.38;;;5.32;;
80101;SDS011;69407;44.966;19.622;2024-01-07T01:53:19;12.68;;;5.85;;
80101;SDS011;69407;44.966;19.622;2024-01-07T01:55:44;13.40;;;5.35;;
80101;SDS011;69407;44.966;19.622;2024-01-07T01:58:10;13.05;;;5.50;;
80101;SDS011;69407;44.966;19.622;2024-01-07T02:00:38;9.18;;;4.55;;
80101;SDS011;69407;44.966;19.622;2024-01-07T02:03:04;11.68;;;5.40;;
80101;SDS011;69407;44.966;19.622;2024-01-07T02:05:30;10.05;;;5.00;;
80101;SDS011;69407;44.966;19.622;2024-01-07T02:07:56;12.68;;;5.30;;
80101;SDS011;69407;44.966;19.622;2024-01-07T02:10:23;13.02;;;5.07;;
80101;SDS011;69407;44.966;19.622;2024-01-07T02:12:48;9.00;;;4.28;;
80101;SDS011;69407;44.966;19.622;2024-01-07T02:15:14;12.82;;;4.85;;
80101;SDS011;69407;44.966;19.622;2024-01-07T02:17:40;14.43;;;5.72;;
80101;SDS011;69407;44.966;19.622;2024-01-07T02:20:06;11.68;;;4.78;;
80101;SDS011;69407;44.966;19.622;2024-01-07T02:22:31;9.98;;;4.93;;
80101;SDS011;69407;44.966;19.622;2024-01-07T02:24:57;9.88;;;4.93;;
80101;SDS011;69407;44.966;19.622;2024-01-07T02:27:22;7.55;;;4.18;;
80101;SDS011;69407;44.966;19.622;2024-01-07T02:29:48;8.85;;;4.78;;
80101;SDS011;69407;44.966;19.622;2024-01-07T02:32:13;7.60;;;4.38;;
80101;SDS011;69407;44.966;19.622;2024-01-07T02:34:39;10.38;;;4.95;;
80101;SDS011;69407;44.966;19.622;2024-01-07T02:37:04;7.68;;;4.00;;
80101;SDS011;69407;44.966;19.622;2024-01-07T02:39:30;8.23;;;4.22;;
80101;SDS011;69407;44.966;19.622;2024-01-07T02:41:55;10.55;;;4.53;;
80101;SDS011;69407;44.966;19.622;2024-01-07T02:44:21;10.77;;;5.43;;
80101;SDS011;69407;44.966;19.622;2024-01-07T02:46:46;10.82;;;4.63;;
80101;SDS011;69407;44.966;19.622;2024-01-07T02:49:12;8.13;;;4.70;;
80101;SDS011;69407;44.966;19.622;2024-01-07T02:51:38;11.00;;;4.90;;
80101;SDS011;69407;44.966;19.622;2024-01-07T02:54:03;10.07;;;4.47;;
80101;SDS011;69407;44.966;19.622;2024-01-07T02:56:29;8.90;;;4.38;;
80101;SDS011;69407;44.966;19.622;2024-01-07T02:58:54;13.25;;;4.97;;
80101;SDS011;69407;44.966;19.622;2024-01-07T03:01:24;10.57;;;4.93;;
80101;SDS011;69407;44.966;19.622;2024-01-07T03:03:49;8.50;;;4.47;;
80101;SDS011;69407;44.966;19.622;2024-01-07T03:06:16;11.60;;;4.47;;
80101;SDS011;69407;44.966;19.622;2024-01-07T03:08:41;10.90;;;4.55;;
80101;SDS011;69407;44.966;19.622;2024-01-07T03:11:08;7.88;;;4.47;;
80101;SDS011;69407;44.966;19.622;2024-01-07T03:13:33;9.00;;;4.50;;
80101;SDS011;69407;44.966;19.622;2024-01-07T03:15:59;10.60;;;4.95;;
80101;SDS011;69407;44.966;19.622;2024-01-07T03:18:26;8.27;;;4.30;;
80101;SDS011;69407;44.966;19.622;2024-01-07T03:20:53;8.73;;;4.15;;
80101;SDS011;69407;44.966;19.622;2024-01-07T03:23:19;7.40;;;4.20;;
80101;SDS011;69407;44.966;19.622;2024-01-07T03:25:44;7.43;;;3.60;;
80101;SDS011;69407;44.966;19.622;2024-01-07T03:28:09;8.73;;;3.92;;
80101;SDS011;69407;44.966;19.622;2024-01-07T03:30:35;7.60;;;4.35;;
80101;SDS011;69407;44.966;19.622;2024-01-07T03:33:02;8.70;;;4.05;;
80101;SDS011;69407;44.966;19.622;2024-01-07T03:35:27;7.90;;;4.30;;
80101;SDS011;69407;44.966;19.622;2024-01-07T03:37:53;9.05;;;4.35;;
80101;SDS011;69407;44.966;19.622;2024-01-07T03:40:18;8.77;;;3.85;;
80101;SDS011;69407;44.966;19.622;2024-01-07T03:42:44;6.05;;;3.65;;
80101;SDS011;69407;44.966;19.622;2024-01-07T03:45:09;8.25;;;3.83;;
80101;SDS011;69407;44.966;19.622;2024-01-07T03:47:35;6.53;;;3.65;;
80101;SDS011;69407;44.966;19.622;2024-01-07T03:50:00;10.95;;;3.97;;
80101;SDS011;69407;44.966;19.622;2024-01-07T03:52:26;8.85;;;3.78;;
80101;SDS011;69407;44.966;19.622;2024-01-07T03:54:51;7.78;;;3.45;;
80101;SDS011;69407;44.966;19.622;2024-01-07T03:57:17;7.90;;;3.80;;
80101;SDS011;69407;44.966;19.622;2024-01-07T03:59:42;8.93;;;4.20;;
80101;SDS011;69407;44.966;19.622;2024-01-07T04:02:08;8.18;;;3.60;;
80101;SDS011;69407;44.966;19.622;2024-01-07T04:04:34;9.57;;;4.07;;
80101;SDS011;69407;44.966;19.622;2024-01-07T04:06:59;9.40;;;3.92;;
80101;SDS011;69407;44.966;19.622;2024-01-07T04:09:25;7.68;;;3.40;;
80101;SDS011;69407;44.966;19.622;2024-01-07T04:11:50;6.15;;;3.13;;
80101;SDS011;69407;44.966;19.622;2024-01-07T04:14:16;8.82;;;3.55;;
80101;SDS011;69407;44.966;19.622;2024-01-07T04:16:41;9.52;;;3.90;;
80101;SDS011;69407;44.966;19.622;2024-01-07T04:19:07;8.02;;;3.70;;
80101;SDS011;69407;44.966;19.622;2024-01-07T04:21:32;9.82;;;3.50;;
80101;SDS011;69407;44.966;19.622;2024-01-07T04:23:58;6.82;;;3.22;;
80101;SDS011;69407;44.966;19.622;2024-01-07T04:26:23;6.35;;;3.17;;
80101;SDS011;69407;44.966;19.622;2024-01-07T04:28:49;7.93;;;3.35;;
80101;SDS011;69407;44.966;19.622;2024-01-07T04:31:14;6.43;;;3.97;;
80101;SDS011;69407;44.966;19.622;2024-01-07T04:33:40;8.68;;;4.03;;
80101;SDS011;69407;44.966;19.622;2024-01-07T04:36:06;11.00;;;3.97;;
80101;SDS011;69407;44.966;19.622;2024-01-07T04:38:31;8.70;;;4.10;;
80101;SDS011;69407;44.966;19.622;2024-01-07T04:40:57;8.35;;;3.90;;
80101;SDS011;69407;44.966;19.622;2024-01-07T04:43:22;5.93;;;3.60;;
80101;SDS011;69407;44.966;19.622;2024-01-07T04:45:48;7.60;;;3.42;;
80101;SDS011;69407;44.966;19.622;2024-01-07T04:48:13;8.85;;;4.00;;
80101;SDS011;69407;44.966;19.622;2024-01-07T04:50:42;7.22;;;3.17;;
80101;SDS011;69407;44.966;19.622;2024-01-07T04:53:08;6.78;;;3.20;;
80101;SDS011;69407;44.966;19.622;2024-01-07T04:55:34;7.70;;;3.00;;
80101;SDS011;69407;44.966;19.622;2024-01-07T04:57:59;6.75;;;3.22;;
80101;SDS011;69407;44.966;19.622;2024-01-07T05:00:26;7.32;;;3.92;;
80101;SDS011;69407;44.966;19.622;2024-01-07T05:02:52;7.10;;;3.28;;
80101;SDS011;69407;44.966;19.622;2024-01-07T05:05:17;7.15;;;3.47;;
80101;SDS011;69407;44.966;19.622;2024-01-07T05:07:43;7.18;;;3.35;;
80101;SDS011;69407;44.966;19.622;2024-01-07T05:10:08;8.80;;;3.88;;
80101;SDS011;69407;44.966;19.622;2024-01-07T05:12:34;7.07;;;3.65;;
80101;SDS011;69407;44.966;19.622;2024-01-07T05:14:59;8.98;;;4.57;;
80101;SDS011;69407;44.966;19.622;2024-01-07T05:17:25;8.65;;;3.92;;
80101;SDS011;69407;44.966;19.622;2024-01-07T05:19:50;12.20;;;4.43;;
80101;SDS011;69407;44.966;19.622;2024-01-07T05:22:15;7.55;;;3.70;;
80101;SDS011;69407;44.966;19.622;2024-01-07T05:24:41;8.80;;;3.70;;
80101;SDS011;69407;44.966;19.622;2024-01-07T05:27:07;7.57;;;3.75;;
80101;SDS011;69407;44.966;19.622;2024-01-07T05:29:32;8.88;;;4.32;;
80101;SDS011;69407;44.966;19.622;2024-01-07T05:34:27;6.10;;;3.72;;
80101;SDS011;69407;44.966;19.622;2024-01-07T05:36:53;9.35;;;3.83;;
80101;SDS011;69407;44.966;19.622;2024-01-07T05:39:19;6.10;;;2.80;;
80101;SDS011;69407;44.966;19.622;2024-01-07T05:41:44;7.95;;;3.25;;
80101;SDS011;69407;44.966;19.622;2024-01-07T05:44:11;6.57;;;3.50;;
80101;SDS011;69407;44.966;19.622;2024-01-07T05:46:40;6.80;;;3.42;;
80101;SDS011;69407;44.966;19.622;2024-01-07T05:49:05;10.77;;;4.22;;
80101;SDS011;69407;44.966;19.622;2024-01-07T05:51:31;6.38;;;3.00;;
80101;SDS011;69407;44.966;19.622;2024-01-07T05:53:57;7.60;;;3.20;;
80101;SDS011;69407;44.966;19.622;2024-01-07T05:56:23;9.32;;;4.30;;
80101;SDS011;69407;44.966;19.622;2024-01-07T05:58:48;12.25;;;4.57;;
80101;SDS011;69407;44.966;19.622;2024-01-07T06:01:20;9.18;;;5.05;;
80101;SDS011;69407;44.966;19.622;2024-01-07T06:03:47;9.63;;;5.10;;
80101;SDS011;69407;44.966;19.622;2024-01-07T06:06:13;9.05;;;3.50;;
80101;SDS011;69407;44.966;19.622;2024-01-07T06:08:40;8.70;;;4.35;;
80101;SDS011;69407;44.966;19.622;2024-01-07T06:11:08;9.98;;;4.18;;
80101;SDS011;69407;44.966;19.622;2024-01-07T06:13:35;10.93;;;4.63;;
80101;SDS011;69407;44.966;19.622;2024-01-07T06:16:01;9.18;;;4.70;;
80101;SDS011;69407;44.966;19.622;2024-01-07T06:18:27;11.95;;;4.13;;
80101;SDS011;69407;44.966;19.622;2024-01-07T06:20:52;9.65;;;5.15;;
80101;SDS011;69407;44.966;19.622;2024-01-07T06:23:18;14.68;;;7.13;;
80101;SDS011;69407;44.966;19.622;2024-01-07T06:25:43;12.50;;;5.05;;
80101;SDS011;69407;44.966;19.622;2024-01-07T06:28:09;10.55;;;5.32;;
80101;SDS011;69407;44.966;19.622;2024-01-07T06:33:03;10.90;;;4.38;;
80101;SDS011;69407;44.966;19.622;2024-01-07T06:35:28;7.50;;;3.78;;
80101;SDS011;69407;44.966;19.622;2024-01-07T06:37:54;8.95;;;4.20;;
80101;SDS011;69407;44.966;19.622;2024-01-07T06:40:20;7.20;;;3.42;;
80101;SDS011;69407;44.966;19.622;2024-01-07T06:42:45;7.65;;;4.00;;
80101;SDS011;69407;44.966;19.622;2024-01-07T06:45:12;9.10;;;3.50;;
80101;SDS011;69407;44.966;19.622;2024-01-07T06:47:39;9.40;;;4.40;;
80101;SDS011;69407;44.966;19.622;2024-01-07T06:50:04;11.98;;;6.57;;
80101;SDS011;69407;44.966;19.622;2024-01-07T06:52:30;10.07;;;4.80;;
80101;SDS011;69407;44.966;19.622;2024-01-07T06:54:56;10.43;;;4.18;;
80101;SDS011;69407;44.966;19.622;2024-01-07T06:57:21;8.00;;;4.07;;
80101;SDS011;69407;44.966;19.622;2024-01-07T06:59:47;8.25;;;4.75;;
80101;SDS011;69407;44.966;19.622;2024-01-07T07:02:12;8.77;;;4.13;;
80101;SDS011;69407;44.966;19.622;2024-01-07T07:04:38;10.07;;;5.05;;
80101;SDS011;69407;44.966;19.622;2024-01-07T07:07:03;8.20;;;4.88;;
80101;SDS011;69407;44.966;19.622;2024-01-07T07:09:29;12.25;;;5.10;;
80101;SDS011;69407;44.966;19.622;2024-01-07T07:11:54;11.43;;;5.72;;
80101;SDS011;69407;44.966;19.622;2024-01-07T07:14:20;14.02;;;7.20;;
80101;SDS011;69407;44.966;19.622;2024-01-07T07:16:45;20.73;;;9.68;;
80101;SDS011;69407;44.966;19.622;2024-01-07T07:19:11;24.33;;;12.48;;
80101;SDS011;69407;44.966;19.622;2024-01-07T07:21:39;22.08;;;10.70;;
80101;SDS011;69407;44.966;19.622;2024-01-07T07:24:05;25.88;;;13.57;;
80101;SDS011;69407;44.966;19.622;2024-01-07T07:26:31;23.20;;;12.25;;
80101;SDS011;69407;44.966;19.622;2024-01-07T07:28:57;31.17;;;12.63;;
80101;SDS011;69407;44.966;19.622;2024-01-07T07:31:22;21.23;;;9.55;;
80101;SDS011;69407;44.966;19.622;2024-01-07T07:33:48;21.35;;;11.30;;
80101;SDS011;69407;44.966;19.622;2024-01-07T07:36:14;19.15;;;8.82;;
80101;SDS011;69407;44.966;19.622;2024-01-07T07:38:40;19.23;;;9.57;;
80101;SDS011;69407;44.966;19.622;2024-01-07T07:41:05;18.88;;;8.23;;
80101;SDS011;69407;44.966;19.622;2024-01-07T07:43:32;18.30;;;8.50;;
80101;SDS011;69407;44.966;19.622;2024-01-07T07:45:58;18.10;;;9.32;;
80101;SDS011;69407;44.966;19.622;2024-01-07T07:48:25;17.10;;;8.13;;
80101;SDS011;69407;44.966;19.622;2024-01-07T07:50:51;23.83;;;9.82;;
80101;SDS011;69407;44.966;19.622;2024-01-07T07:53:16;18.25;;;8.77;;
80101;SDS011;69407;44.966;19.622;2024-01-07T07:55:42;16.20;;;7.80;;
80101;SDS011;69407;44.966;19.622;2024-01-07T07:58:07;12.07;;;5.50;;
80101;SDS011;69407;44.966;19.622;2024-01-07T08:00:33;13.38;;;5.78;;
80101;SDS011;69407;44.966;19.622;2024-01-07T08:02:58;9.15;;;4.68;;
80101;SDS011;69407;44.966;19.622;2024-01-07T08:05:24;10.25;;;5.13;;
80101;SDS011;69407;44.966;19.622;2024-01-07T08:07:49;9.88;;;5.22;;
80101;SDS011;69407;44.966;19.622;2024-01-07T08:10:15;15.30;;;6.50;;
80101;SDS011;69407;44.966;19.622;2024-01-07T08:12:41;8.48;;;4.70;;
80101;SDS011;69407;44.966;19.622;2024-01-07T08:15:07;8.88;;;4.72;;
80101;SDS011;69407;44.966;19.622;2024-01-07T08:17:32;11.35;;;5.25;;
80101;SDS011;69407;44.966;19.622;2024-01-07T08:19:58;8.77;;;4.75;;
80101;SDS011;69407;44.966;19.622;2024-01-07T08:22:24;10.80;;;4.72;;
80101;SDS011;69407;44.966;19.622;2024-01-07T08:24:50;10.57;;;4.80;;
80101;SDS011;69407;44.966;19.622;2024-01-07T08:27:15;12.98;;;4.70;;
80101;SDS011;69407;44.966;19.622;2024-01-07T08:29:44;12.55;;;5.60;;
80101;SDS011;69407;44.966;19.622;2024-01-07T08:32:09;27.08;;;10.55;;
80101;SDS011;69407;44.966;19.622;2024-01-07T08:34:35;27.88;;;13.30;;
80101;SDS011;69407;44.966;19.622;2024-01-07T08:37:01;23.77;;;10.50;;
80101;SDS011;69407;44.966;19.622;2024-01-07T08:39:26;19.00;;;9.00;;
80101;SDS011;69407;44.966;19.622;2024-01-07T08:41:53;23.60;;;11.55;;
80101;SDS011;69407;44.966;19.622;2024-01-07T08:44:19;27.02;;;12.05;;
80101;SDS011;69407;44.966;19.622;2024-01-07T08:46:44;26.58;;;12.85;;
80101;SDS011;69407;44.966;19.622;2024-01-07T08:49:10;33.63;;;17.02;;
80101;SDS011;69407;44.966;19.622;2024-01-07T08:51:36;30.95;;;17.13;;
80101;SDS011;69407;44.966;19.622;2024-01-07T08:54:02;21.00;;;12.20;;
80101;SDS011;69407;44.966;19.622;2024-01-07T08:56:28;24.55;;;13.10;;
80101;SDS011;69407;44.966;19.622;2024-01-07T08:58:54;23.05;;;13.60;;
80101;SDS011;69407;44.966;19.622;2024-01-07T09:01:19;31.80;;;18.27;;
80101;SDS011;69407;44.966;19.622;2024-01-07T09:03:45;29.65;;;16.25;;
80101;SDS011;69407;44.966;19.622;2024-01-07T09:06:10;37.10;;;19.85;;
80101;SDS011;69407;44.966;19.622;2024-01-07T09:08:36;41.35;;;21.65;;
80101;SDS011;69407;44.966;19.622;2024-01-07T09:11:04;37.50;;;20.33;;
80101;SDS011;69407;44.966;19.622;2024-01-07T09:13:31;81.05;;;41.85;;
80101;SDS011;69407;44.966;19.622;2024-01-07T09:15:57;39.97;;;20.80;;
80101;SDS011;69407;44.966;19.622;2024-01-07T09:18:22;50.65;;;25.35;;
80101;SDS011;69407;44.966;19.622;2024-01-07T09:20:48;51.97;;;24.48;;
80101;SDS011;69407;44.966;19.622;2024-01-07T09:23:13;49.38;;;20.38;;
80101;SDS011;69407;44.966;19.622;2024-01-07T09:25:40;53.60;;;23.92;;
80101;SDS011;69407;44.966;19.622;2024-01-07T09:28:07;52.47;;;21.90;;
80101;SDS011;69407;44.966;19.622;2024-01-07T09:30:32;34.55;;;16.02;;
80101;SDS011;69407;44.966;19.622;2024-01-07T09:32:58;21.55;;;11.65;;
80101;SDS011;69407;44.966;19.622;2024-01-07T09:35:23;24.55;;;11.15;;
80101;SDS011;69407;44.966;19.622;2024-01-07T09:37:49;22.95;;;10.90;;
80101;SDS011;69407;44.966;19.622;2024-01-07T09:40:17;24.55;;;13.45;;
80101;SDS011;69407;44.966;19.622;2024-01-07T09:42:44;38.15;;;19.80;;
80101;SDS011;69407;44.966;19.622;2024-01-07T09:45:10;42.67;;;22.30;;
80101;SDS011;69407;44.966;19.622;2024-01-07T09:47:38;50.05;;;27.13;;
80101;SDS011;69407;44.966;19.622;2024-01-07T09:50:06;50.03;;;27.85;;
80101;SDS011;69407;44.966;19.622;2024-01-07T09:52:32;54.25;;;29.00;;
80101;SDS011;69407;44.966;19.622;2024-01-07T09:55:00;65.18;;;34.33;;
80101;SDS011;69407;44.966;19.622;2024-01-07T09:57:28;70.72;;;36.60;;
80101;SDS011;69407;44.966;19.622;2024-01-07T09:59:55;77.68;;;38.85;;
80101;SDS011;69407;44.966;19.622;2024-01-07T10:02:20;54.35;;;28.50;;
80101;SDS011;69407;44.966;19.622;2024-01-07T10:04:48;59.47;;;31.77;;
80101;SDS011;69407;44.966;19.622;2024-01-07T10:07:14;54.47;;;32.00;;
80101;SDS011;69407;44.966;19.622;2024-01-07T10:09:40;42.67;;;22.98;;
80101;SDS011;69407;44.966;19.622;2024-01-07T10:12:07;48.90;;;23.70;;
80101;SDS011;69407;44.966;19.622;2024-01-07T10:14:33;56.42;;;28.17;;
80101;SDS011;69407;44.966;19.622;2024-01-07T10:16:59;49.75;;;27.85;;
80101;SDS011;69407;44.966;19.622;2024-01-07T10:19:24;48.60;;;27.10;;
80101;SDS011;69407;44.966;19.622;2024-01-07T10:24:26;60.65;;;30.50;;
80101;SDS011;69407;44.966;19.622;2024-01-07T10:26:51;129.10;;;53.65;;
80101;SDS011;69407;44.966;19.622;2024-01-07T10:29:17;61.15;;;32.42;;
80101;SDS011;69407;44.966;19.622;2024-01-07T10:31:43;57.35;;;31.10;;
80101;SDS011;69407;44.966;19.622;2024-01-07T10:34:09;38.45;;;22.92;;
80101;SDS011;69407;44.966;19.622;2024-01-07T10:36:35;40.80;;;23.02;;
80101;SDS011;69407;44.966;19.622;2024-01-07T10:39:02;32.25;;;19.67;;
80101;SDS011;69407;44.966;19.622;2024-01-07T10:41:28;65.70;;;34.15;;
80101;SDS011;69407;44.966;19.622;2024-01-07T10:43:55;76.32;;;39.17;;
80101;SDS011;69407;44.966;19.622;2024-01-07T10:46:20;78.60;;;41.88;;
80101;SDS011;69407;44.966;19.622;2024-01-07T10:48:58;58.28;;;32.20;;
80101;SDS011;69407;44.966;19.622;2024-01-07T10:51:28;56.03;;;32.17;;
80101;SDS011;69407;44.966;19.622;2024-01-07T10:53:56;54.97;;;29.33;;
80101;SDS011;69407;44.966;19.622;2024-01-07T10:56:22;47.10;;;24.45;;
80101;SDS011;69407;44.966;19.622;2024-01-07T10:58:52;42.42;;;22.60;;
80101;SDS011;69407;44.966;19.622;2024-01-07T11:01:19;66.47;;;30.77;;
80101;SDS011;69407;44.966;19.622;2024-01-07T11:06:31;78.97;;;32.97;;
80101;SDS011;69407;44.966;19.622;2024-01-07T11:09:06;57.30;;;25.58;;
80101;SDS011;69407;44.966;19.622;2024-01-07T11:11:38;48.45;;;23.08;;
80101;SDS011;69407;44.966;19.622;2024-01-07T11:17:08;44.40;;;21.73;;
80101;SDS011;69407;44.966;19.622;2024-01-07T11:19:37;68.55;;;28.58;;
80101;SDS011;69407;44.966;19.622;2024-01-07T11:24:55;74.35;;;29.50;;
80101;SDS011;69407;44.966;19.622;2024-01-07T11:27:21;89.35;;;37.30;;
80101;SDS011;69407;44.966;19.622;2024-01-07T11:29:57;93.63;;;36.40;;
80101;SDS011;69407;44.966;19.622;2024-01-07T11:32:29;113.13;;;42.63;;
80101;SDS011;69407;44.966;19.622;2024-01-07T11:34:55;76.90;;;33.92;;
80101;SDS011;69407;44.966;19.622;2024-01-07T11:37:23;59.45;;;29.95;;
80101;SDS011;69407;44.966;19.622;2024-01-07T11:39:51;74.10;;;36.88;;
80101;SDS011;69407;44.966;19.622;2024-01-07T11:42:20;54.83;;;27.20;;
80101;SDS011;69407;44.966;19.622;2024-01-07T11:44:48;38.63;;;21.58;;
80101;SDS011;69407;44.966;19.622;2024-01-07T11:47:15;38.38;;;22.13;;
80101;SDS011;69407;44.966;19.622;2024-01-07T11:49:41;33.25;;;20.15;;
80101;SDS011;69407;44.966;19.622;2024-01-07T11:52:07;44.30;;;22.45;;
80101;SDS011;69407;44.966;19.622;2024-01-07T11:54:34;49.50;;;25.55;;
80101;SDS011;69407;44.966;19.622;2024-01-07T11:56:59;31.73;;;16.48;;
80101;SDS011;69407;44.966;19.622;2024-01-07T11:59:27;36.42;;;19.95;;
80101;SDS011;69407;44.966;19.622;2024-01-07T12:01:54;37.20;;;19.95;;
80101;SDS011;69407;44.966;19.622;2024-01-07T12:04:20;33.20;;;17.35;;
80101;SDS011;69407;44.966;19.622;2024-01-07T12:06:46;28.83;;;14.10;;
80101;SDS011;69407;44.966;19.622;2024-01-07T12:09:13;37.42;;;19.40;;
80101;SDS011;69407;44.966;19.622;2024-01-07T12:11:39;38.90;;;19.80;;
80101;SDS011;69407;44.966;19.622;2024-01-07T12:14:06;45.25;;;23.27;;
80101;SDS011;69407;44.966;19.622;2024-01-07T12:16:33;60.65;;;30.50;;
80101;SDS011;69407;44.966;19.622;2024-01-07T12:18:59;64.90;;;30.33;;
80101;SDS011;69407;44.966;19.622;2024-01-07T12:21:25;62.72;;;28.77;;
80101;SDS011;69407;44.966;19.622;2024-01-07T12:23:52;62.90;;;29.00;;
80101;SDS011;69407;44.966;19.622;2024-01-07T12:26:17;42.85;;;21.90;;
80101;SDS011;69407;44.966;19.622;2024-01-07T12:28:44;38.20;;;19.70;;
80101;SDS011;69407;44.966;19.622;2024-01-07T12:31:16;44.28;;;23.25;;
80101;SDS011;69407;44.966;19.622;2024-01-07T12:33:42;50.63;;;26.15;;
80101;SDS011;69407;44.966;19.622;2024-01-07T12:36:08;47.78;;;26.73;;
80101;SDS011;69407;44.966;19.622;2024-01-07T12:38:36;52.70;;;26.70;;
80101;SDS011;69407;44.966;19.622;2024-01-07T12:41:02;55.50;;;28.88;;
80101;SDS011;69407;44.966;19.622;2024-01-07T12:43:27;59.08;;;29.73;;
80101;SDS011;69407;44.966;19.622;2024-01-07T12:45:53;63.50;;;31.83;;
80101;SDS011;69407;44.966;19.622;2024-01-07T12:48:20;47.38;;;26.58;;
80101;SDS011;69407;44.966;19.622;2024-01-07T12:50:46;38.35;;;20.52;;
80101;SDS011;69407;44.966;19.622;2024-01-07T12:53:11;38.65;;;22.10;;
80101;SDS011;69407;44.966;19.622;2024-01-07T12:55:37;41.92;;;25.65;;
80101;SDS011;69407;44.966;19.622;2024-01-07T12:58:02;35.33;;;20.77;;
80101;SDS011;69407;44.966;19.622;2024-01-07T13:00:28;44.53;;;24.33;;
80101;SDS011;69407;44.966;19.622;2024-01-07T13:02:54;54.05;;;31.05;;
80101;SDS011;69407;44.966;19.622;2024-01-07T13:05:20;66.10;;;35.10;;
80101;SDS011;69407;44.966;19.622;2024-01-07T13:07:46;73.88;;;38.35;;
80101;SDS011;69407;44.966;19.622;2024-01-07T13:10:12;61.67;;;30.73;;
80101;SDS011;69407;44.966;19.622;2024-01-07T13:12:38;51.83;;;30.10;;
80101;SDS011;69407;44.966;19.622;2024-01-07T13:15:04;47.53;;;27.80;;
80101;SDS011;69407;44.966;19.622;2024-01-07T13:17:30;35.78;;;19.33;;
80101;SDS011;69407;44.966;19.622;2024-01-07T13:19:57;30.58;;;17.17;;
80101;SDS011;69407;44.966;19.622;2024-01-07T13:22:23;33.83;;;20.77;;
80101;SDS011;69407;44.966;19.622;2024-01-07T13:24:49;30.90;;;19.15;;
80101;SDS011;69407;44.966;19.622;2024-01-07T13:27:15;33.28;;;21.25;;
80101;SDS011;69407;44.966;19.622;2024-01-07T13:29:43;40.42;;;26.98;;
80101;SDS011;69407;44.966;19.622;2024-01-07T13:32:12;32.60;;;20.13;;
80101;SDS011;69407;44.966;19.622;2024-01-07T13:34:42;32.58;;;21.30;;
80101;SDS011;69407;44.966;19.622;2024-01-07T13:37:08;35.72;;;21.27;;
80101;SDS011;69407;44.966;19.622;2024-01-07T13:39:34;30.95;;;19.10;;
80101;SDS011;69407;44.966;19.622;2024-01-07T13:41:59;27.40;;;17.40;;
80101;SDS011;69407;44.966;19.622;2024-01-07T13:44:26;68.85;;;31.95;;
80101;SDS011;69407;44.966;19.622;2024-01-07T13:46:52;52.90;;;27.77;;
80101;SDS011;69407;44.966;19.622;2024-01-07T13:49:18;51.92;;;25.20;;
80101;SDS011;69407;44.966;19.622;2024-01-07T13:51:44;32.30;;;17.27;;
80101;SDS011;69407;44.966;19.622;2024-01-07T13:54:09;30.60;;;15.93;;
80101;SDS011;69407;44.966;19.622;2024-01-07T13:56:42;23.05;;;14.65;;
80101;SDS011;69407;44.966;19.622;2024-01-07T13:59:09;27.67;;;16.48;;
80101;SDS011;69407;44.966;19.622;2024-01-07T14:01:35;32.03;;;15.63;;
80101;SDS011;69407;44.966;19.622;2024-01-07T14:04:00;22.98;;;12.95;;
80101;SDS011;69407;44.966;19.622;2024-01-07T14:06:26;25.10;;;14.60;;
80101;SDS011;69407;44.966;19.622;2024-01-07T14:08:52;27.70;;;15.25;;
80101;SDS011;69407;44.966;19.622;2024-01-07T14:11:18;24.80;;;14.95;;
80101;SDS011;69407;44.966;19.622;2024-01-07T14:13:44;23.05;;;13.93;;
80101;SDS011;69407;44.966;19.622;2024-01-07T14:16:11;23.25;;;13.55;;
80101;SDS011;69407;44.966;19.622;2024-01-07T14:18:37;22.45;;;13.68;;
80101;SDS011;69407;44.966;19.622;2024-01-07T14:21:03;35.17;;;22.02;;
80101;SDS011;69407;44.966;19.622;2024-01-07T14:23:28;56.25;;;29.27;;
80101;SDS011;69407;44.966;19.622;2024-01-07T14:25:56;49.10;;;22.77;;
80101;SDS011;69407;44.966;19.622;2024-01-07T14:28:22;25.67;;;15.20;;